Warning: fopen(/var/www/metroair/shared/private/wxdata/metar/AVWX/metar_ETAR): failed to open stream: Permission denied in /var/www/metroair/shared/private/library/orig_library/lib_airport.php on line 346

Warning: fwrite() expects parameter 1 to be resource, boolean given in /var/www/metroair/shared/private/library/orig_library/lib_airport.php on line 347

Warning: fclose() expects parameter 1 to be resource, boolean given in /var/www/metroair/shared/private/library/orig_library/lib_airport.php on line 348

MET9200 - Baltimore to Ramstein AFB

Airbus A330-243
792MT
7 hrs 20 mins
3481 nm
Charter - M | W | F

Departure

Departing from
Baltimore (BWI)
Departure gate
Scheduled Departure
GMT 1000
Local 0500
METAR KBWI 220554Z 00000KT 10SM BKN160 OVC200 07/04 A3009 RMK AO2 SLP191 T00670039 10089 20067 56019
TAF KBWI 220529Z 2206/2312 00000KT P6SM BKN150 FM222000 18006KT P6SM SCT060 FM230500 20004KT P6SM SCT020 FM230600 20004KT 3SM BR BKN015
  • No charts available

Arrival

Arriving at
Ramstein AFB (RMS)
Arrival gate
Ramp
Scheduled Arrival
GMT 1720
Local 1920
METAR ETAR 220629Z 24015G21KT 9999 OVC014 09/09 A2990 RMK AO2A
TAF TAF ETAR 220218Z 2202/2308 25012G20KT 8000 -RA BKN010 620509 621404 QNH2992INS BECMG 2205/2206 24025G35KT 8000 -RA BKN008 540004 QNH2988INS BECMG 2303/2304 24025G35KT 9999 NSW BKN008 620709 621602 540004 QNH2982INS BECMG 2305/2306 24015G25KT 9999 BKN010 6

Route Map

Planning Resources

SWL J174 LFV J150 STOOL J585 YQI J575 YQY J577 YQX BAKUR UN546 STU NUMPO UP2 NIGIT PENUX SANDY UL15 RANUX UN858 LIMGO TOLEY
Route:
OFP Layout:
Units:
Detailed Navlog:
ETOPS Planning:
Plan Stepclimbs:
Runway Analysis:
Include NOTAMS:
FIR NOTAMS:
Flight Maps:

Return Flights

MET9201
Airbus A330-243
1500 GMT

Popularity

Hub Current Bids PiReps this month Total PiReps
KMCI 0 0 1
KLAX 0 0 0
KBOS 0 0 0